Time;durP1;ratioP1;P1;durP2;ratioP2;P2;SDS_P1;SDS_P2;PMS_P1;PMS_P2;Temp;Humidity;BMP_temperature;BMP_pressure;BME280_temperature;BME280_humidity;BME280_pressure;Samples;Min_cycle;Max_cycle;Signal;HPM_P1;HPM_P2
2023/02/03 00:02:23;;;;;;;9.30;4.88;;;5.60;99.90;;;;;;5061602;28;20055;-70
2023/02/03 00:04:50;;;;;;;9.23;4.90;;;5.60;99.90;;;;;;5052633;28;20483;-70
2023/02/03 00:07:18;;;;;;;9.10;4.63;;;5.60;99.90;;;;;;5067030;28;20046;-69
2023/02/03 00:09:45;;;;;;;14.50;6.25;;;5.60;99.90;;;;;;5060598;28;20415;-70
2023/02/03 00:12:13;;;;;;;9.65;5.20;;;5.60;99.90;;;;;;5062719;28;20049;-72
2023/02/03 00:14:40;;;;;;;10.30;5.60;;;5.60;99.90;;;;;;5087892;28;20067;-68
2023/02/03 00:17:07;;;;;;;13.43;5.43;;;5.60;99.90;;;;;;5070286;28;20066;-68
2023/02/03 00:19:35;;;;;;;9.02;5.88;;;5.50;99.90;;;;;;5047477;28;20055;-69
2023/02/03 00:22:02;;;;;;;8.23;5.20;;;5.50;99.90;;;;;;5057785;28;20040;-69
2023/02/03 00:24:29;;;;;;;8.90;5.20;;;5.50;99.90;;;;;;5057748;28;20563;-65
2023/02/03 00:26:56;;;;;;;8.68;4.85;;;5.50;99.90;;;;;;5071448;28;20386;-67
2023/02/03 00:29:24;;;;;;;12.57;5.78;;;5.50;99.90;;;;;;5072141;28;20106;-69
2023/02/03 00:31:53;;;;;;;10.48;5.25;;;5.50;99.90;;;;;;5067713;28;20098;-67
2023/02/03 00:34:20;;;;;;;8.55;5.43;;;5.50;99.90;;;;;;5068386;28;20037;-69
2023/02/03 00:36:48;;;;;;;10.35;5.82;;;5.50;99.90;;;;;;5048391;28;20117;-68
2023/02/03 00:39:15;;;;;;;11.82;5.50;;;5.40;99.90;;;;;;5050535;28;20055;-67
2023/02/03 00:41:43;;;;;;;10.82;5.80;;;5.50;99.90;;;;;;5051094;28;20116;-66
2023/02/03 00:44:11;;;;;;;10.82;5.70;;;5.50;99.90;;;;;;5049792;28;20559;-69
2023/02/03 00:46:38;;;;;;;9.55;5.53;;;5.40;99.90;;;;;;5051883;28;20045;-70
2023/02/03 00:49:06;;;;;;;10.10;6.00;;;5.40;99.90;;;;;;5050883;28;20033;-72
2023/02/03 00:51:34;;;;;;;9.10;5.63;;;5.40;99.90;;;;;;5036024;28;20124;-71
2023/02/03 00:54:01;;;;;;;8.18;6.00;;;5.40;99.90;;;;;;5029988;28;20072;-68
2023/02/03 00:56:28;;;;;;;9.45;5.68;;;5.40;99.90;;;;;;5013154;28;20052;-68
2023/02/03 00:58:56;;;;;;;11.45;5.70;;;5.40;99.90;;;;;;5045403;28;20041;-69
2023/02/03 01:01:23;;;;;;;10.00;6.10;;;5.40;99.90;;;;;;5049190;28;20290;-68
2023/02/03 01:03:52;;;;;;;10.45;5.80;;;5.40;99.90;;;;;;5065470;28;20041;-71
2023/02/03 01:06:20;;;;;;;9.85;6.60;;;5.40;99.90;;;;;;5050665;28;20041;-68
2023/02/03 01:08:48;;;;;;;13.07;6.03;;;5.40;99.90;;;;;;5051324;28;20033;-68
2023/02/03 01:11:21;;;;;;;9.07;5.95;;;5.40;99.90;;;;;;5051319;28;20562;-67
2023/02/03 01:13:50;;;;;;;11.60;6.70;;;5.40;99.90;;;;;;5058579;28;20040;-68
2023/02/03 01:16:20;;;;;;;8.52;6.25;;;5.40;99.90;;;;;;5056115;28;20388;-68
2023/02/03 01:18:49;;;;;;;11.15;6.38;;;5.40;99.90;;;;;;5067989;28;20087;-68
2023/02/03 01:21:20;;;;;;;10.98;6.60;;;5.40;99.90;;;;;;5065351;28;20075;-66
2023/02/03 01:23:47;;;;;;;11.80;7.03;;;5.40;99.90;;;;;;5054801;28;20041;-67
2023/02/03 01:26:17;;;;;;;10.70;7.28;;;5.40;99.90;;;;;;5045988;28;20056;-66
2023/02/03 01:28:59;;;;;;;16.20;7.80;;;5.40;99.90;;;;;;5048966;28;20078;-69
2023/02/03 01:31:28;;;;;;;13.27;6.95;;;5.40;99.90;;;;;;5066105;28;20457;-66
2023/02/03 01:33:56;;;;;;;13.38;7.72;;;5.40;99.90;;;;;;5086680;28;20074;-66
2023/02/03 01:36:26;;;;;;;10.25;6.40;;;5.40;99.90;;;;;;5070762;28;20037;-69
2023/02/03 01:38:54;;;;;;;14.27;7.53;;;5.40;99.90;;;;;;5071287;28;20099;-68
2023/02/03 01:41:28;;;;;;;13.77;7.35;;;5.50;99.90;;;;;;5014318;28;20057;-68
2023/02/03 01:43:57;;;;;;;15.27;7.32;;;5.50;99.90;;;;;;5044367;28;20036;-69
2023/02/03 01:46:34;;;;;;;13.95;7.63;;;5.40;99.90;;;;;;5053613;28;20575;-66
2023/02/03 01:49:26;;;;;;;15.43;7.90;;;5.50;99.90;;;;;;5058309;28;20051;-69
2023/02/03 01:51:54;;;;;;;14.52;8.57;;;5.50;99.90;;;;;;5063662;28;20128;-67
2023/02/03 01:54:37;;;;;;;13.07;8.20;;;5.50;99.90;;;;;;5050294;28;20105;-69
2023/02/03 01:57:12;;;;;;;17.70;8.65;;;5.50;99.90;;;;;;5069324;28;20379;-69
2023/02/03 01:59:39;;;;;;;20.75;9.57;;;5.50;99.90;;;;;;5051386;28;20503;-68
2023/02/03 02:02:08;;;;;;;16.85;8.45;;;5.50;99.90;;;;;;5058528;28;20084;-68
2023/02/03 02:05:13;;;;;;;13.13;8.85;;;5.50;99.90;;;;;;5086048;28;20048;-66
2023/02/03 02:07:42;;;;;;;17.33;9.23;;;5.50;99.90;;;;;;5058322;28;20045;-66
2023/02/03 02:10:10;;;;;;;16.48;9.40;;;5.60;99.90;;;;;;5041000;28;20140;-66
2023/02/03 02:12:37;;;;;;;19.15;8.15;;;5.50;99.90;;;;;;5051468;28;20037;-68
2023/02/03 02:15:05;;;;;;;14.20;9.30;;;5.50;99.90;;;;;;5052514;28;20171;-67
2023/02/03 02:18:09;;;;;;;14.93;8.68;;;5.50;99.90;;;;;;5070211;28;20098;-69
2023/02/03 02:20:51;;;;;;;12.90;8.45;;;5.60;99.90;;;;;;5062063;28;20055;-64
2023/02/03 02:23:22;;;;;;;16.33;8.63;;;5.60;99.90;;;;;;5044485;28;20563;-69
2023/02/03 02:26:28;;;;;;;16.67;8.02;;;5.60;99.90;;;;;;5085256;28;20115;-67
2023/02/03 02:29:10;;;;;;;17.33;8.80;;;5.60;99.90;;;;;;5020432;28;20053;-68
2023/02/03 02:31:52;;;;;;;16.65;8.82;;;5.60;99.90;;;;;;5011013;28;20324;-65
2023/02/03 02:34:39;;;;;;;18.23;8.05;;;5.60;99.90;;;;;;5026717;28;20053;-65
2023/02/03 02:37:56;;;;;;;15.77;8.75;;;5.60;99.90;;;;;;5003388;28;20164;-71
2023/02/03 02:40:38;;;;;;;15.88;7.85;;;5.60;99.90;;;;;;4966660;28;20093;-69
2023/02/03 02:43:27;;;;;;;16.13;8.48;;;5.60;99.90;;;;;;4978808;28;20054;-71
2023/02/03 02:46:02;;;;;;;13.25;7.13;;;5.60;99.90;;;;;;5011750;28;20080;-70
2023/02/03 02:48:39;;;;;;;14.57;7.63;;;5.70;99.90;;;;;;5011822;28;20092;-70
2023/02/03 02:51:11;;;;;;;12.70;7.85;;;5.70;99.90;;;;;;4994401;28;20137;-68
2023/02/03 02:53:48;;;;;;;17.70;7.78;;;5.80;99.90;;;;;;5009722;28;20049;-70
2023/02/03 02:56:17;;;;;;;12.65;7.15;;;5.70;99.90;;;;;;4994391;28;20092;-66
2023/02/03 02:58:47;;;;;;;15.05;7.90;;;5.70;99.90;;;;;;4996465;28;20060;-69
2023/02/03 03:01:15;;;;;;;13.38;7.30;;;5.80;99.90;;;;;;5037867;28;20048;-69
2023/02/03 03:03:44;;;;;;;16.85;8.38;;;5.80;99.90;;;;;;5034496;28;20065;-69
2023/02/03 03:06:18;;;;;;;19.98;7.10;;;5.80;99.90;;;;;;5030994;28;20049;-70
2023/02/03 03:08:57;;;;;;;15.15;8.05;;;5.70;99.90;;;;;;5049308;28;20045;-70
2023/02/03 03:11:29;;;;;;;14.25;7.70;;;5.80;99.90;;;;;;5052050;28;20040;-69
2023/02/03 03:13:58;;;;;;;16.23;6.80;;;5.80;99.90;;;;;;5051373;28;20577;-69
2023/02/03 03:16:29;;;;;;;12.20;7.18;;;5.80;99.90;;;;;;5052600;28;20049;-69
2023/02/03 03:19:00;;;;;;;16.33;6.97;;;5.80;99.90;;;;;;5052696;28;20084;-67
2023/02/03 03:21:36;;;;;;;10.82;6.63;;;5.70;99.90;;;;;;5032651;28;20128;-69
2023/02/03 03:24:09;;;;;;;12.05;6.75;;;5.80;99.90;;;;;;5032622;28;20041;-70
2023/02/03 03:26:48;;;;;;;12.18;6.60;;;5.80;99.90;;;;;;5037995;28;20037;-66
2023/02/03 03:29:20;;;;;;;11.70;5.97;;;5.70;99.90;;;;;;5055289;28;20041;-70
2023/02/03 03:31:47;;;;;;;12.32;6.13;;;5.80;99.90;;;;;;5031597;28;20124;-66
2023/02/03 03:34:16;;;;;;;9.43;5.95;;;5.80;99.90;;;;;;5041527;28;20045;-65
2023/02/03 03:36:43;;;;;;;13.48;6.30;;;5.80;99.90;;;;;;5052345;28;20496;-68
2023/02/03 03:39:22;;;;;;;8.10;5.32;;;5.90;99.90;;;;;;5018445;28;20053;-69
2023/02/03 03:41:59;;;;;;;9.95;5.22;;;5.80;99.90;;;;;;5046259;28;20518;-68
2023/02/03 03:44:34;;;;;;;11.35;5.35;;;5.90;99.90;;;;;;5030868;28;20469;-68
2023/02/03 03:47:28;;;;;;;10.48;4.82;;;5.90;99.90;;;;;;5032182;28;20046;-68
2023/02/03 03:49:57;;;;;;;9.52;4.80;;;5.90;99.90;;;;;;5044721;28;20044;-68
2023/02/03 03:52:29;;;;;;;9.40;5.30;;;5.90;99.90;;;;;;5030764;28;20050;-69
2023/02/03 03:54:59;;;;;;;8.32;5.13;;;5.90;99.90;;;;;;5047778;28;20110;-66
2023/02/03 03:57:38;;;;;;;10.88;5.53;;;5.90;99.90;;;;;;5037966;28;20051;-69
2023/02/03 04:00:12;;;;;;;9.43;5.22;;;5.90;99.90;;;;;;5070329;28;20150;-69
2023/02/03 04:02:41;;;;;;;12.80;5.53;;;5.90;99.90;;;;;;5056338;28;20768;-67
2023/02/03 04:05:10;;;;;;;9.40;5.07;;;5.90;99.90;;;;;;5030740;28;20691;-67
2023/02/03 04:07:40;;;;;;;10.23;5.18;;;5.90;99.90;;;;;;5046587;28;20041;-68
2023/02/03 04:10:22;;;;;;;8.52;5.05;;;5.90;99.90;;;;;;5051345;28;20045;-68
2023/02/03 04:12:50;;;;;;;9.43;5.07;;;5.90;99.90;;;;;;5059916;28;20472;-68
2023/02/03 04:15:17;;;;;;;10.18;5.07;;;6.00;99.90;;;;;;5066964;28;20045;-68
2023/02/03 04:17:44;;;;;;;8.70;4.85;;;5.90;99.90;;;;;;5052989;28;20383;-68
2023/02/03 04:20:12;;;;;;;7.03;5.13;;;6.00;99.90;;;;;;5034260;28;20480;-68
2023/02/03 04:22:39;;;;;;;8.95;4.68;;;6.00;99.90;;;;;;5030846;28;20077;-67
2023/02/03 04:25:07;;;;;;;8.30;5.15;;;6.00;99.90;;;;;;5030548;28;20041;-68
2023/02/03 04:27:34;;;;;;;7.13;5.13;;;6.00;99.90;;;;;;5046316;28;20050;-67
2023/02/03 04:30:03;;;;;;;10.43;5.57;;;6.00;99.90;;;;;;5048200;28;20083;-67
2023/02/03 04:32:30;;;;;;;10.35;5.35;;;6.00;99.90;;;;;;5050717;28;20033;-68
2023/02/03 04:34:57;;;;;;;7.82;5.10;;;6.00;99.90;;;;;;5048070;28;20045;-69
2023/02/03 04:37:27;;;;;;;8.70;4.75;;;6.10;99.90;;;;;;5054650;28;20056;-66
2023/02/03 04:39:55;;;;;;;9.07;4.85;;;6.00;99.90;;;;;;5048916;28;20565;-69
2023/02/03 04:42:23;;;;;;;9.77;4.78;;;6.10;99.90;;;;;;5050699;28;20459;-67
2023/02/03 04:44:50;;;;;;;12.20;5.00;;;6.00;99.90;;;;;;5049190;28;20548;-67
2023/02/03 04:47:18;;;;;;;8.82;5.13;;;6.00;99.90;;;;;;5034556;28;20137;-67
2023/02/03 04:49:45;;;;;;;9.30;4.93;;;6.00;99.90;;;;;;5041581;28;20516;-67
2023/02/03 04:52:13;;;;;;;9.35;4.93;;;6.00;99.90;;;;;;5041084;28;20046;-65
2023/02/03 04:54:40;;;;;;;9.95;5.18;;;6.00;99.90;;;;;;5031776;28;20115;-68
2023/02/03 04:57:07;;;;;;;13.00;5.47;;;6.00;99.90;;;;;;5037309;28;20502;-67
2023/02/03 04:59:35;;;;;;;7.28;4.63;;;6.00;99.90;;;;;;5050877;28;20041;-69
2023/02/03 05:02:03;;;;;;;7.70;5.20;;;6.00;99.90;;;;;;5036488;28;20049;-68
2023/02/03 05:04:30;;;;;;;8.70;5.03;;;6.00;99.90;;;;;;5030235;28;20107;-68
2023/02/03 05:06:58;;;;;;;7.43;5.03;;;6.00;99.90;;;;;;5052451;28;20467;-64
2023/02/03 05:09:28;;;;;;;9.40;4.85;;;5.90;99.90;;;;;;5031682;28;20038;-68
2023/02/03 05:11:56;;;;;;;8.75;5.13;;;5.90;99.90;;;;;;5004819;28;20063;-68
2023/02/03 05:14:23;;;;;;;7.50;5.35;;;5.90;99.90;;;;;;5048732;28;20572;-69
2023/02/03 05:16:50;;;;;;;7.15;4.70;;;6.00;99.90;;;;;;5045114;28;20064;-68
2023/02/03 05:19:18;;;;;;;6.18;4.25;;;6.00;99.90;;;;;;5025330;28;20078;-68
2023/02/03 05:21:45;;;;;;;6.90;4.50;;;6.00;99.90;;;;;;5047444;28;20048;-69
2023/02/03 05:24:12;;;;;;;7.97;4.40;;;6.00;99.90;;;;;;5029523;28;20064;-67
2023/02/03 05:26:39;;;;;;;9.02;4.43;;;6.00;99.90;;;;;;5030362;28;20053;-67
2023/02/03 05:29:07;;;;;;;8.38;4.05;;;6.10;99.90;;;;;;5029194;28;20515;-68
2023/02/03 05:31:34;;;;;;;6.18;3.70;;;6.00;99.90;;;;;;5045878;28;20458;-65
2023/02/03 05:34:02;;;;;;;5.72;3.90;;;6.00;99.90;;;;;;5030929;28;20069;-68
2023/02/03 05:36:29;;;;;;;6.80;3.90;;;6.00;99.90;;;;;;5030969;28;20030;-68
2023/02/03 05:38:56;;;;;;;8.43;3.80;;;6.00;99.90;;;;;;5031619;28;20037;-67
2023/02/03 05:44:10;;;;;;;6.60;3.95;;;6.00;99.90;;;;;;5030776;28;20045;-67
2023/02/03 05:46:37;;;;;;;7.03;4.18;;;6.00;99.90;;;;;;5044818;28;20045;-64
2023/02/03 05:49:04;;;;;;;5.47;3.78;;;5.90;99.90;;;;;;5035043;28;20037;-69
2023/02/03 05:51:32;;;;;;;6.15;3.35;;;6.00;99.90;;;;;;5044060;28;20045;-65
2023/02/03 05:53:59;;;;;;;4.78;3.15;;;6.00;99.90;;;;;;5031314;28;20038;-68
2023/02/03 05:56:26;;;;;;;4.72;3.50;;;6.00;99.90;;;;;;5030024;28;20168;-66
2023/02/03 05:58:54;;;;;;;5.97;3.10;;;6.00;99.90;;;;;;5030322;28;20056;-65
2023/02/03 06:01:21;;;;;;;7.28;3.33;;;6.00;99.90;;;;;;5029204;28;20045;-65
2023/02/03 06:03:48;;;;;;;6.50;3.28;;;6.00;99.90;;;;;;5029096;28;20038;-69
2023/02/03 06:06:16;;;;;;;7.13;3.63;;;5.90;99.90;;;;;;5043654;28;20041;-68
2023/02/03 06:08:44;;;;;;;5.00;2.90;;;5.90;99.90;;;;;;5068675;28;20040;-73
2023/02/03 06:11:11;;;;;;;4.88;2.95;;;5.90;99.90;;;;;;5056619;28;20454;-67
2023/02/03 06:13:38;;;;;;;5.47;2.72;;;5.90;99.90;;;;;;5059355;28;20041;-68
2023/02/03 06:16:06;;;;;;;6.03;2.83;;;6.00;99.90;;;;;;5070678;28;20474;-66
2023/02/03 06:18:33;;;;;;;7.57;4.38;;;5.90;99.90;;;;;;5072706;28;20041;-66
2023/02/03 06:21:01;;;;;;;4.70;2.65;;;5.90;99.90;;;;;;5068206;28;20040;-67
2023/02/03 06:23:28;;;;;;;7.53;2.75;;;6.00;99.90;;;;;;5076009;28;20506;-66
2023/02/03 06:25:55;;;;;;;6.75;2.63;;;6.00;99.90;;;;;;5068429;28;20072;-66
2023/02/03 06:28:22;;;;;;;4.20;2.38;;;5.90;99.90;;;;;;5067550;28;20051;-65
2023/02/03 06:30:51;;;;;;;4.28;2.40;;;5.90;99.90;;;;;;5076883;28;20506;-67
2023/02/03 06:33:19;;;;;;;5.18;2.40;;;5.90;99.90;;;;;;5075554;28;20044;-67
2023/02/03 06:35:46;;;;;;;6.13;2.53;;;5.90;99.90;;;;;;5076056;28;20067;-67
2023/02/03 06:38:14;;;;;;;4.65;2.40;;;5.90;99.90;;;;;;5076606;28;20419;-66
2023/02/03 06:40:41;;;;;;;6.03;2.83;;;5.80;99.90;;;;;;5064276;28;20078;-67
2023/02/03 06:43:08;;;;;;;5.40;2.60;;;5.90;99.90;;;;;;5074738;28;20456;-69
2023/02/03 06:45:35;;;;;;;3.30;2.05;;;5.90;99.90;;;;;;5068784;28;20424;-67
2023/02/03 06:48:03;;;;;;;4.45;2.22;;;5.90;99.90;;;;;;5063162;28;20495;-69
2023/02/03 06:50:30;;;;;;;3.97;2.40;;;6.00;99.90;;;;;;5055810;28;20055;-70
2023/02/03 06:52:57;;;;;;;4.20;2.47;;;6.00;99.90;;;;;;5053548;28;20136;-66
2023/02/03 06:55:24;;;;;;;6.93;2.40;;;5.90;99.90;;;;;;5052357;28;20043;-67
2023/02/03 06:57:52;;;;;;;3.47;2.50;;;6.00;99.90;;;;;;5056160;28;20041;-66
2023/02/03 07:00:20;;;;;;;4.72;2.50;;;6.00;99.90;;;;;;5054435;28;20403;-66
2023/02/03 07:02:56;;;;;;;4.30;2.50;;;6.00;99.90;;;;;;5030620;28;20556;-66
2023/02/03 07:05:24;;;;;;;5.35;2.42;;;6.00;99.90;;;;;;5050859;28;20036;-67
2023/02/03 07:07:51;;;;;;;5.40;2.40;;;6.00;99.90;;;;;;5064750;28;20037;-67
2023/02/03 07:10:19;;;;;;;4.35;2.30;;;6.10;99.90;;;;;;5060072;28;20046;-66
2023/02/03 07:12:46;;;;;;;5.32;2.55;;;6.10;99.90;;;;;;5075099;28;20048;-67
2023/02/03 07:15:13;;;;;;;4.07;2.30;;;6.10;99.90;;;;;;5076023;28;20067;-66
2023/02/03 07:17:40;;;;;;;3.75;2.42;;;6.10;99.90;;;;;;5075705;28;20126;-66
2023/02/03 07:20:08;;;;;;;5.47;2.45;;;6.00;99.90;;;;;;5069182;28;20055;-67
2023/02/03 07:22:37;;;;;;;4.13;2.30;;;6.00;99.90;;;;;;5068133;28;20056;-67
2023/02/03 07:25:05;;;;;;;4.03;2.42;;;6.00;99.90;;;;;;5075485;28;20048;-67
2023/02/03 07:27:32;;;;;;;4.13;2.70;;;6.00;99.90;;;;;;5069981;28;20750;-68
2023/02/03 07:29:59;;;;;;;4.93;2.85;;;6.10;99.90;;;;;;5072012;28;20048;-68
2023/02/03 07:32:26;;;;;;;4.60;2.50;;;6.00;99.90;;;;;;5073072;28;20180;-66
2023/02/03 07:34:54;;;;;;;6.07;2.83;;;6.00;99.90;;;;;;5064822;28;20071;-66
2023/02/03 07:37:21;;;;;;;4.68;2.60;;;6.20;99.90;;;;;;5067367;28;20380;-67
2023/02/03 07:39:49;;;;;;;4.85;2.65;;;6.10;99.90;;;;;;5066558;28;20414;-66
2023/02/03 07:42:16;;;;;;;5.20;2.85;;;6.10;99.90;;;;;;5055081;28;20136;-66
2023/02/03 07:44:45;;;;;;;4.85;2.45;;;6.20;99.90;;;;;;5071238;28;20051;-67
2023/02/03 07:47:12;;;;;;;4.65;2.72;;;6.20;99.90;;;;;;5065169;28;20048;-67
2023/02/03 07:49:40;;;;;;;5.30;2.78;;;6.20;99.90;;;;;;5059182;28;20056;-67
2023/02/03 07:52:07;;;;;;;6.20;2.88;;;6.10;99.90;;;;;;5069745;28;20505;-67
2023/02/03 07:54:34;;;;;;;5.40;2.95;;;6.20;99.90;;;;;;5069997;28;20040;-67
2023/02/03 07:57:02;;;;;;;4.05;2.85;;;6.20;99.90;;;;;;5054551;28;20111;-67
2023/02/03 07:59:29;;;;;;;4.60;3.10;;;6.20;99.90;;;;;;5050360;28;20178;-66
2023/02/03 08:01:56;;;;;;;5.65;2.78;;;6.20;99.90;;;;;;5037233;28;20067;-67
2023/02/03 08:04:23;;;;;;;4.38;2.60;;;6.20;99.90;;;;;;5050183;28;20052;-67
2023/02/03 08:06:51;;;;;;;6.18;2.88;;;6.20;99.90;;;;;;5065340;28;20120;-66
2023/02/03 08:09:18;;;;;;;5.00;2.70;;;6.20;99.90;;;;;;5044410;28;20041;-68
2023/02/03 08:11:45;;;;;;;4.90;2.50;;;6.20;99.90;;;;;;5040331;28;20128;-68
2023/02/03 08:14:13;;;;;;;5.03;2.60;;;6.20;99.90;;;;;;5033057;28;20040;-67
2023/02/03 08:16:40;;;;;;;5.68;2.90;;;6.20;99.90;;;;;;5047080;28;20052;-70
2023/02/03 08:19:07;;;;;;;5.28;2.80;;;6.20;99.90;;;;;;5050865;28;20123;-68
2023/02/03 08:21:35;;;;;;;5.50;3.00;;;6.20;99.90;;;;;;5054718;28;20037;-66
2023/02/03 08:24:02;;;;;;;6.38;3.00;;;6.30;99.90;;;;;;5048005;28;20044;-68
2023/02/03 08:26:30;;;;;;;5.88;2.78;;;6.20;99.90;;;;;;5065500;28;20399;-68
2023/02/03 08:28:57;;;;;;;4.25;2.65;;;6.30;99.90;;;;;;5050558;28;20461;-65
2023/02/03 08:31:24;;;;;;;5.15;2.60;;;6.30;99.90;;;;;;5049212;28;20037;-67
2023/02/03 08:33:52;;;;;;;5.43;2.88;;;6.30;99.90;;;;;;5049447;28;20049;-68
2023/02/03 08:36:19;;;;;;;3.45;2.15;;;6.30;99.90;;;;;;5050616;28;20503;-67
2023/02/03 08:38:46;;;;;;;5.32;2.53;;;6.30;99.90;;;;;;5048380;28;20045;-66
2023/02/03 08:41:16;;;;;;;4.15;2.58;;;6.30;99.90;;;;;;5050192;28;20040;-67
2023/02/03 08:43:44;;;;;;;4.53;2.60;;;6.30;99.90;;;;;;5044964;28;20056;-67
2023/02/03 08:46:12;;;;;;;6.47;2.75;;;6.30;99.90;;;;;;5059103;28;20128;-65
2023/02/03 08:48:40;;;;;;;5.82;2.53;;;6.30;99.90;;;;;;5030429;28;20042;-66
2023/02/03 08:51:15;;;;;;;4.82;2.22;;;6.30;99.90;;;;;;5031193;28;20050;-69
2023/02/03 08:53:43;;;;;;;3.70;2.33;;;6.30;99.90;;;;;;5030357;28;20483;-66
2023/02/03 08:56:11;;;;;;;4.70;2.92;;;6.30;99.90;;;;;;5030098;28;20045;-66
2023/02/03 08:58:39;;;;;;;5.13;2.70;;;6.30;99.90;;;;;;5031398;28;20061;-66
2023/02/03 09:01:12;;;;;;;7.22;2.72;;;6.40;99.90;;;;;;5030559;28;20407;-66
2023/02/03 09:03:40;;;;;;;4.68;2.70;;;6.40;99.90;;;;;;5037479;28;20496;-67
2023/02/03 09:06:10;;;;;;;6.03;2.88;;;6.40;99.90;;;;;;5041573;28;20038;-68
2023/02/03 09:08:38;;;;;;;4.03;2.53;;;6.40;99.90;;;;;;5037685;28;20037;-67
2023/02/03 09:11:13;;;;;;;5.40;2.70;;;6.40;99.90;;;;;;5047116;28;20037;-66
2023/02/03 09:13:44;;;;;;;3.95;2.50;;;6.40;99.90;;;;;;5028359;28;20476;-67
2023/02/03 09:16:13;;;;;;;4.88;2.40;;;6.40;99.90;;;;;;5027858;28;20581;-64
2023/02/03 09:18:41;;;;;;;4.70;2.40;;;6.40;99.90;;;;;;5027667;28;20119;-66
2023/02/03 09:21:10;;;;;;;4.57;2.53;;;6.40;99.90;;;;;;5030323;28;20510;-68
2023/02/03 09:23:46;;;;;;;5.45;2.45;;;6.50;99.90;;;;;;5033163;28;20053;-66
2023/02/03 09:26:15;;;;;;;4.30;2.25;;;6.50;99.90;;;;;;5044648;28;20037;-68
2023/02/03 09:28:43;;;;;;;3.60;2.22;;;6.50;99.90;;;;;;5029898;28;20053;-66
2023/02/03 09:31:16;;;;;;;7.30;2.95;;;6.60;99.90;;;;;;5028999;28;20116;-67
2023/02/03 09:33:44;;;;;;;5.90;2.45;;;6.60;99.90;;;;;;5029349;28;20053;-67
2023/02/03 09:36:12;;;;;;;4.30;2.17;;;6.60;99.90;;;;;;5039365;28;20052;-66
2023/02/03 09:38:39;;;;;;;3.95;2.38;;;6.70;99.90;;;;;;5049632;28;20337;-65
2023/02/03 09:41:09;;;;;;;5.13;2.60;;;6.70;99.90;;;;;;5049369;28;20051;-65
2023/02/03 09:44:13;;;;;;;4.37;2.37;;;6.70;99.90;;;;;;5049204;28;20106;-65
2023/02/03 09:46:45;;;;;;;3.95;2.60;;;6.70;99.90;;;;;;5049000;28;20299;-67
2023/02/03 09:49:25;;;;;;;5.35;2.75;;;6.70;99.90;;;;;;5030937;28;20041;-65
2023/02/03 09:52:00;;;;;;;3.63;2.30;;;6.70;99.90;;;;;;5029734;28;20045;-66
2023/02/03 09:55:00;;;;;;;7.18;3.03;;;6.70;99.90;;;;;;5030062;28;20125;-67
2023/02/03 09:57:30;;;;;;;5.20;2.65;;;6.70;99.90;;;;;;4989692;28;20497;-70
2023/02/03 10:00:02;;;;;;;6.78;2.90;;;6.80;99.90;;;;;;4991370;28;20149;-65
2023/02/03 10:03:05;;;;;;;4.95;3.10;;;6.80;99.90;;;;;;4996511;28;20108;-65
2023/02/03 10:06:11;;;;;;;4.30;2.55;;;6.80;99.90;;;;;;4996110;28;20041;-66
2023/02/03 10:08:58;;;;;;;4.43;2.80;;;6.90;99.90;;;;;;4998670;28;20487;-67
2023/02/03 10:11:28;;;;;;;4.65;3.00;;;6.90;99.90;;;;;;4974657;28;20052;-67
2023/02/03 10:14:32;;;;;;;4.82;2.55;;;6.90;99.90;;;;;;4992076;28;20061;-70
2023/02/03 10:17:21;;;;;;;5.18;3.08;;;6.90;99.90;;;;;;4989110;28;20075;-67
2023/02/03 10:20:03;;;;;;;4.45;2.55;;;7.00;99.90;;;;;;4989606;28;20555;-66
2023/02/03 10:22:36;;;;;;;4.30;2.25;;;7.00;99.90;;;;;;5005948;28;20056;-65
2023/02/03 10:25:24;;;;;;;6.60;2.30;;;7.00;99.90;;;;;;5007457;28;20053;-65
2023/02/03 10:27:57;;;;;;;3.67;2.42;;;7.00;99.90;;;;;;5000877;28;20185;-66
2023/02/03 10:30:30;;;;;;;4.60;2.40;;;7.00;99.90;;;;;;5007243;28;20042;-65
2023/02/03 10:33:12;;;;;;;6.15;2.40;;;7.00;99.90;;;;;;5012328;28;20058;-67
2023/02/03 10:35:48;;;;;;;3.80;2.38;;;7.10;99.90;;;;;;5049860;28;20480;-65
2023/02/03 10:38:47;;;;;;;4.57;2.38;;;7.00;99.90;;;;;;5047513;28;20049;-66
2023/02/03 10:41:17;;;;;;;4.03;2.30;;;7.10;99.90;;;;;;5049415;28;20125;-64
2023/02/03 10:43:46;;;;;;;3.83;2.67;;;7.00;99.90;;;;;;5029399;28;20128;-67
2023/02/03 10:46:14;;;;;;;5.75;2.60;;;7.00;99.90;;;;;;5028887;28;20458;-66
2023/02/03 10:48:42;;;;;;;5.63;2.38;;;7.00;99.90;;;;;;5036832;28;20466;-66
2023/02/03 10:51:22;;;;;;;4.47;2.67;;;7.00;99.90;;;;;;5047293;28;20041;-66
2023/02/03 10:53:52;;;;;;;3.67;2.28;;;7.00;99.90;;;;;;5028581;28;20041;-68
2023/02/03 10:56:34;;;;;;;5.45;2.67;;;7.10;99.90;;;;;;5043659;28;20526;-68
2023/02/03 10:59:02;;;;;;;3.25;2.25;;;7.10;99.90;;;;;;5029847;28;20470;-67
2023/02/03 11:01:40;;;;;;;7.80;2.60;;;7.10;99.90;;;;;;5048677;28;20045;-68
2023/02/03 11:04:27;;;;;;;5.38;2.67;;;7.10;99.90;;;;;;5043921;28;20415;-67
2023/02/03 11:07:05;;;;;;;5.05;2.50;;;7.20;99.90;;;;;;5036862;28;20129;-67
2023/02/03 11:09:38;;;;;;;7.30;2.45;;;7.30;99.90;;;;;;5032218;28;20041;-67
2023/02/03 11:12:18;;;;;;;5.72;2.60;;;7.30;99.90;;;;;;5046581;28;20065;-67
2023/02/03 11:14:50;;;;;;;4.50;2.88;;;7.30;99.90;;;;;;5032038;28;20507;-66
2023/02/03 11:17:21;;;;;;;4.53;2.60;;;7.30;99.90;;;;;;5031346;28;20079;-67
2023/02/03 11:19:54;;;;;;;6.57;2.45;;;7.30;99.90;;;;;;5033055;28;20527;-67
2023/02/03 11:22:28;;;;;;;3.90;2.10;;;7.30;99.90;;;;;;5032411;28;20124;-65
2023/02/03 11:24:57;;;;;;;6.47;2.78;;;7.20;99.90;;;;;;5033092;28;20563;-70
2023/02/03 11:27:28;;;;;;;4.93;2.40;;;7.30;99.90;;;;;;5052237;28;20449;-67
2023/02/03 11:30:23;;;;;;;6.95;2.80;;;7.30;99.90;;;;;;5050856;28;20496;-64
2023/02/03 11:32:51;;;;;;;5.43;2.60;;;7.30;99.90;;;;;;5040746;28;20071;-70
2023/02/03 11:35:29;;;;;;;4.63;2.83;;;7.40;99.90;;;;;;5047584;28;20125;-66
2023/02/03 11:37:59;;;;;;;6.68;2.90;;;7.40;99.90;;;;;;5049809;28;20045;-69
2023/02/03 11:40:32;;;;;;;6.65;2.97;;;7.40;99.90;;;;;;5046583;28;20041;-67
2023/02/03 11:43:16;;;;;;;6.55;3.50;;;7.40;99.90;;;;;;5049389;28;20475;-68
2023/02/03 11:45:49;;;;;;;6.05;2.88;;;7.40;99.90;;;;;;5039120;28;20034;-67
2023/02/03 11:48:21;;;;;;;;;;;7.30;99.90;;;;;;5040891;28;20187;-71
2023/02/03 11:51:01;;;;;;;4.97;3.42;;;7.30;99.90;;;;;;5040077;28;19929;-65
2023/02/03 11:53:51;;;;;;;5.28;2.53;;;7.30;99.90;;;;;;5044521;28;20487;-68
2023/02/03 11:56:26;;;;;;;5.28;2.20;;;7.30;99.90;;;;;;5050318;28;20049;-68
2023/02/03 11:59:18;;;;;;;4.18;2.30;;;7.30;99.90;;;;;;5072395;28;20063;-69
2023/02/03 12:02:05;;;;;;;3.78;2.10;;;7.30;99.90;;;;;;5071631;28;20501;-66
2023/02/03 12:04:43;;;;;;;4.25;2.17;;;7.30;99.90;;;;;;5067132;28;20062;-67
2023/02/03 12:07:25;;;;;;;3.20;2.08;;;7.30;99.90;;;;;;5071415;28;20044;-67
2023/02/03 12:10:21;;;;;;;3.38;2.25;;;7.30;99.90;;;;;;5071636;28;20117;-67
2023/02/03 12:12:57;;;;;;;4.40;2.50;;;7.30;99.90;;;;;;5070301;28;20044;-66
2023/02/03 12:15:30;;;;;;;4.30;2.25;;;7.20;99.90;;;;;;5070643;28;20050;-66
2023/02/03 12:18:04;;;;;;;4.35;2.10;;;7.10;99.90;;;;;;5071926;28;20492;-66
2023/02/03 12:20:34;;;;;;;3.47;2.15;;;7.20;99.90;;;;;;5060181;28;20055;-66
2023/02/03 12:23:29;;;;;;;4.55;2.75;;;7.10;99.90;;;;;;5062939;28;20491;-68
2023/02/03 12:26:04;;;;;;;4.47;2.25;;;7.10;99.90;;;;;;5051688;28;20045;-66
2023/02/03 12:28:34;;;;;;;7.18;2.80;;;7.10;99.90;;;;;;5052322;28;20045;-69
2023/02/03 12:31:14;;;;;;;6.63;2.92;;;7.20;99.90;;;;;;5042910;28;20044;-66
2023/02/03 12:33:55;;;;;;;5.93;2.30;;;7.20;99.90;;;;;;5056075;28;20529;-67
2023/02/03 12:36:38;;;;;;;6.07;2.25;;;7.10;99.90;;;;;;5044342;28;20483;-68
2023/02/03 12:39:48;;;;;;;4.78;2.30;;;7.10;99.90;;;;;;5059074;28;20040;-66
2023/02/03 12:42:28;;;;;;;3.42;1.83;;;7.10;99.90;;;;;;5070909;28;20392;-66
2023/02/03 12:45:07;;;;;;;4.90;2.10;;;7.10;99.90;;;;;;5070577;28;20051;-68
2023/02/03 12:47:54;;;;;;;4.53;1.85;;;7.10;99.90;;;;;;5043308;28;20470;-70
2023/02/03 12:50:35;;;;;;;3.03;1.85;;;7.10;99.90;;;;;;5034059;28;20041;-67
2023/02/03 12:53:30;;;;;;;4.70;1.90;;;7.00;99.90;;;;;;5061399;28;20044;-66
2023/02/03 12:56:16;;;;;;;2.63;1.50;;;7.00;99.90;;;;;;5049853;28;20044;-70
2023/02/03 12:58:48;;;;;;;2.92;1.60;;;6.90;99.90;;;;;;5066779;28;20091;-66
2023/02/03 13:01:24;;;;;;;3.85;2.00;;;6.90;99.90;;;;;;5062509;28;20037;-68
2023/02/03 13:04:22;;;;;;;3.97;1.98;;;6.90;99.90;;;;;;5070514;28;20101;-70
2023/02/03 13:07:10;;;;;;;3.35;1.80;;;6.90;99.90;;;;;;5068929;28;20036;-67
2023/02/03 13:09:48;;;;;;;2.15;1.60;;;6.80;99.90;;;;;;5071577;28;20482;-69
2023/02/03 13:12:29;;;;;;;3.33;1.70;;;6.80;99.90;;;;;;5062493;28;20491;-68
2023/02/03 13:15:12;;;;;;;3.75;1.67;;;6.80;99.90;;;;;;5036715;28;20041;-68
2023/02/03 13:17:39;;;;;;;3.33;1.50;;;6.70;99.90;;;;;;5067336;28;20075;-65
2023/02/03 13:20:18;;;;;;;3.33;1.70;;;6.80;99.90;;;;;;5057974;28;20047;-67
2023/02/03 13:22:46;;;;;;;2.75;1.50;;;6.80;99.90;;;;;;5063825;28;20045;-66
2023/02/03 13:25:28;;;;;;;3.97;1.75;;;6.80;99.90;;;;;;5054085;28;20127;-68
2023/02/03 13:28:18;;;;;;;3.30;1.90;;;6.80;99.90;;;;;;5067981;28;20043;-67